Time;durP1;ratioP1;P1;durP2;ratioP2;P2;SDS_P1;SDS_P2;PMS_P1;PMS_P2;Temp;Humidity;BMP_temperature;BMP_pressure;BME280_temperature;BME280_humidity;BME280_pressure;Samples;Min_cycle;Max_cycle;Signal;HPM_P1;HPM_P2
2022/03/27 00:01:35;;;;;;;10.77;9.30;;;10.40;99.90;;;;;;5094884;28;20202;-57
2022/03/27 00:04:02;;;;;;;12.00;9.43;;;10.40;99.90;;;;;;5094636;28;20528;-58
2022/03/27 00:06:27;;;;;;;11.57;8.73;;;10.40;99.90;;;;;;5093917;28;20612;-57
2022/03/27 00:08:54;;;;;;;11.05;9.05;;;10.30;99.90;;;;;;5094477;28;20170;-58
2022/03/27 00:11:26;;;;;;;9.68;8.40;;;10.30;99.90;;;;;;5094527;28;20184;-57
2022/03/27 00:13:58;;;;;;;10.38;8.98;;;10.40;99.90;;;;;;5094504;28;20204;-57
2022/03/27 00:16:24;;;;;;;10.85;8.75;;;10.30;99.90;;;;;;5094473;28;20170;-56
2022/03/27 00:18:50;;;;;;;9.50;8.50;;;10.30;99.90;;;;;;5094143;28;20643;-57
2022/03/27 00:21:16;;;;;;;10.50;8.50;;;10.30;99.90;;;;;;5094142;28;20177;-58
2022/03/27 00:23:43;;;;;;;10.48;8.80;;;10.30;99.90;;;;;;5094601;28;20187;-57
2022/03/27 00:26:09;;;;;;;10.95;8.75;;;10.30;99.90;;;;;;5094383;28;20174;-56
2022/03/27 00:28:36;;;;;;;10.55;8.68;;;10.30;99.90;;;;;;5094280;28;20631;-60
2022/03/27 00:31:04;;;;;;;10.85;9.02;;;10.20;99.90;;;;;;5094144;28;20169;-57
2022/03/27 00:33:31;;;;;;;10.05;8.77;;;10.20;99.90;;;;;;5093951;28;20363;-58
2022/03/27 00:35:58;;;;;;;10.07;9.02;;;10.20;99.90;;;;;;5094328;28;20170;-58
2022/03/27 00:38:25;;;;;;;10.35;8.75;;;10.20;99.90;;;;;;5094385;28;20193;-56
2022/03/27 00:40:52;;;;;;;10.93;8.93;;;10.20;99.90;;;;;;5094118;28;20177;-57
2022/03/27 00:43:22;;;;;;;10.93;8.88;;;10.20;99.90;;;;;;5093824;28;20286;-57
2022/03/27 00:45:48;;;;;;;9.80;8.60;;;10.20;99.90;;;;;;5093811;28;20656;-57
2022/03/27 00:48:15;;;;;;;10.70;9.10;;;10.20;99.90;;;;;;5093670;28;20651;-58
2022/03/27 00:50:41;;;;;;;10.52;8.88;;;10.10;99.90;;;;;;5093870;28;20174;-57
2022/03/27 00:53:11;;;;;;;10.40;8.70;;;10.00;99.90;;;;;;5093793;28;20190;-57
2022/03/27 00:55:36;;;;;;;11.38;8.85;;;10.00;99.90;;;;;;5093851;28;20212;-57
2022/03/27 00:58:03;;;;;;;11.93;9.50;;;10.10;99.90;;;;;;5093660;28;20736;-57
2022/03/27 01:00:37;;;;;;;10.18;8.30;;;10.00;99.90;;;;;;5093773;28;20249;-56
2022/03/27 01:03:07;;;;;;;11.50;8.45;;;10.00;99.90;;;;;;5093705;28;20205;-56
2022/03/27 01:05:33;;;;;;;10.15;9.15;;;9.90;99.90;;;;;;5093585;28;20306;-57
2022/03/27 01:08:04;;;;;;;9.50;8.50;;;9.90;99.90;;;;;;5093628;28;20174;-56
2022/03/27 01:10:30;;;;;;;10.13;8.90;;;9.90;99.90;;;;;;5093730;28;20621;-57
2022/03/27 01:12:56;;;;;;;10.55;8.52;;;9.80;99.90;;;;;;5093767;28;20170;-57
2022/03/27 01:15:27;;;;;;;10.23;9.02;;;9.80;99.90;;;;;;5093462;28;20642;-57
2022/03/27 01:17:53;;;;;;;10.05;9.00;;;9.80;99.90;;;;;;5093449;28;20178;-57
2022/03/27 01:20:23;;;;;;;10.45;8.52;;;9.70;99.90;;;;;;5093409;28;20181;-57
2022/03/27 01:22:49;;;;;;;12.60;9.07;;;9.70;99.90;;;;;;5093263;28;20578;-57
2022/03/27 01:25:15;;;;;;;11.80;8.77;;;9.70;99.90;;;;;;5093193;28;20170;-57
2022/03/27 01:27:41;;;;;;;10.73;8.93;;;9.60;99.90;;;;;;5093293;28;20174;-57
2022/03/27 01:30:07;;;;;;;10.98;9.18;;;9.60;99.90;;;;;;5075491;28;20618;-56
2022/03/27 01:32:33;;;;;;;9.68;8.15;;;9.60;99.90;;;;;;5093307;28;20227;-55
2022/03/27 01:34:59;;;;;;;10.50;8.60;;;9.60;99.90;;;;;;5093352;28;20177;-57
2022/03/27 01:37:24;;;;;;;10.60;8.85;;;9.60;99.90;;;;;;5093221;28;20178;-57
2022/03/27 01:39:50;;;;;;;11.68;8.90;;;9.60;99.90;;;;;;5093315;28;20657;-57
2022/03/27 01:42:15;;;;;;;11.40;9.00;;;9.60;99.90;;;;;;5093001;28;20202;-57
2022/03/27 01:44:41;;;;;;;11.00;9.52;;;9.60;99.90;;;;;;5093312;28;20224;-57
2022/03/27 01:47:07;;;;;;;10.25;8.68;;;9.50;99.90;;;;;;5093048;28;20231;-57
2022/03/27 01:49:33;;;;;;;10.77;8.60;;;9.50;99.90;;;;;;5093202;28;20659;-56
2022/03/27 01:51:59;;;;;;;10.38;8.63;;;9.50;99.90;;;;;;5093154;28;20205;-56
2022/03/27 01:54:24;;;;;;;11.48;9.32;;;9.50;99.90;;;;;;5093152;28;20204;-56
2022/03/27 01:56:50;;;;;;;11.75;8.85;;;9.50;99.90;;;;;;5092957;28;20181;-57
2022/03/27 01:59:16;;;;;;;11.38;9.02;;;9.50;99.90;;;;;;5093000;28;20166;-55
2022/03/27 02:01:42;;;;;;;10.75;8.93;;;9.40;99.90;;;;;;5093036;28;20559;-55
2022/03/27 02:04:07;;;;;;;11.57;8.73;;;9.40;99.90;;;;;;5093138;28;20177;-55
2022/03/27 02:06:37;;;;;;;10.75;8.93;;;9.40;99.90;;;;;;5093065;28;20307;-57
2022/03/27 02:09:03;;;;;;;12.05;9.80;;;9.40;99.90;;;;;;5092858;28;20242;-56
2022/03/27 02:11:28;;;;;;;10.85;9.40;;;9.40;99.90;;;;;;5092874;28;20257;-55
2022/03/27 02:13:54;;;;;;;9.85;8.85;;;9.40;99.90;;;;;;5093276;28;20243;-54
2022/03/27 02:16:20;;;;;;;10.45;8.77;;;9.40;99.90;;;;;;5092968;28;20680;-55
2022/03/27 02:18:46;;;;;;;12.10;9.00;;;9.40;99.90;;;;;;5093023;28;20167;-56
2022/03/27 02:21:11;;;;;;;10.70;9.10;;;9.30;99.90;;;;;;5092603;28;20178;-57
2022/03/27 02:23:38;;;;;;;11.82;9.60;;;9.30;99.90;;;;;;5092936;28;20178;-54
2022/03/27 02:26:05;;;;;;;11.43;9.55;;;9.30;99.90;;;;;;5092800;28;20223;-57
2022/03/27 02:28:31;;;;;;;10.98;9.43;;;9.30;99.90;;;;;;5092823;28;20178;-55
2022/03/27 02:30:57;;;;;;;12.60;9.35;;;9.30;99.90;;;;;;5096542;28;20174;-57
2022/03/27 02:33:24;;;;;;;10.95;9.57;;;9.20;99.90;;;;;;5096550;28;20635;-58
2022/03/27 02:35:49;;;;;;;10.38;9.27;;;9.20;99.90;;;;;;5096365;28;20178;-57
2022/03/27 02:38:15;;;;;;;11.88;9.52;;;9.20;99.90;;;;;;5096390;28;20267;-57
2022/03/27 02:40:43;;;;;;;11.23;9.73;;;9.10;99.90;;;;;;5096209;28;20166;-57
2022/03/27 02:43:12;;;;;;;11.15;9.63;;;9.10;99.90;;;;;;5096281;28;20213;-57
2022/03/27 02:45:39;;;;;;;11.73;10.18;;;9.10;99.90;;;;;;5096484;28;20193;-55
2022/03/27 02:48:05;;;;;;;12.45;10.32;;;9.10;99.90;;;;;;5096140;28;20174;-57
2022/03/27 02:50:32;;;;;;;11.18;9.98;;;9.10;99.90;;;;;;5096051;28;20170;-55
2022/03/27 02:53:00;;;;;;;13.23;10.73;;;9.10;99.90;;;;;;5095929;28;20185;-56
2022/03/27 02:55:27;;;;;;;11.60;10.30;;;9.10;99.90;;;;;;5095888;28;20528;-54
2022/03/27 02:57:53;;;;;;;10.90;9.70;;;9.00;99.90;;;;;;5096315;28;20256;-55
2022/03/27 03:00:20;;;;;;;13.00;9.85;;;9.00;99.90;;;;;;5096048;28;20232;-55
2022/03/27 03:02:45;;;;;;;14.23;10.55;;;9.00;99.90;;;;;;5095772;28;20217;-56
2022/03/27 03:05:12;;;;;;;13.23;10.43;;;9.10;99.90;;;;;;5095775;28;20174;-56
2022/03/27 03:07:42;;;;;;;12.85;10.23;;;9.10;99.90;;;;;;5095520;28;20626;-55
2022/03/27 03:10:09;;;;;;;12.80;10.73;;;9.10;99.90;;;;;;5077714;28;20516;-55
2022/03/27 03:12:34;;;;;;;12.38;10.48;;;9.10;99.90;;;;;;5095888;28;20174;-56
2022/03/27 03:15:00;;;;;;;12.15;10.80;;;9.00;99.90;;;;;;5095626;28;20176;-55
2022/03/27 03:17:27;;;;;;;11.73;10.50;;;9.00;99.90;;;;;;5095607;28;20174;-55
2022/03/27 03:19:53;;;;;;;12.88;11.55;;;8.90;99.90;;;;;;5095490;28;20215;-55
2022/03/27 03:22:18;;;;;;;13.02;11.27;;;8.90;99.90;;;;;;5095415;28;20218;-58
2022/03/27 03:24:46;;;;;;;13.82;11.45;;;8.80;99.90;;;;;;5095644;28;20531;-56
2022/03/27 03:27:12;;;;;;;12.05;10.77;;;8.80;99.90;;;;;;5095460;28;20599;-54
2022/03/27 03:29:38;;;;;;;13.48;11.90;;;8.80;99.90;;;;;;5095174;28;20665;-56
2022/03/27 03:32:04;;;;;;;14.30;12.60;;;8.80;99.90;;;;;;5095333;28;20182;-59
2022/03/27 03:34:30;;;;;;;13.68;12.30;;;8.90;99.90;;;;;;5095325;28;20170;-56
2022/03/27 03:36:56;;;;;;;13.88;12.30;;;8.90;99.90;;;;;;5094986;28;20177;-55
2022/03/27 03:39:22;;;;;;;14.43;13.02;;;8.80;99.90;;;;;;5095152;28;20189;-56
2022/03/27 03:41:48;;;;;;;15.85;13.75;;;8.80;99.90;;;;;;5095112;28;20205;-56
2022/03/27 03:44:14;;;;;;;16.05;14.32;;;8.80;99.90;;;;;;5094936;28;20593;-57
2022/03/27 03:46:39;;;;;;;17.65;15.27;;;8.70;99.90;;;;;;5094985;28;20177;-56
2022/03/27 03:49:08;;;;;;;17.05;15.25;;;8.60;99.90;;;;;;5094864;28;20642;-57
2022/03/27 03:51:35;;;;;;;18.98;17.08;;;8.60;99.90;;;;;;5094902;28;20178;-57
2022/03/27 03:54:06;;;;;;;19.92;17.30;;;8.60;99.90;;;;;;5095005;28;20174;-56
2022/03/27 03:56:32;;;;;;;21.15;18.92;;;8.60;99.90;;;;;;5094972;28;20268;-56
2022/03/27 03:58:58;;;;;;;24.65;20.80;;;8.70;99.90;;;;;;5094772;28;20210;-56
2022/03/27 04:01:24;;;;;;;24.92;21.23;;;8.80;99.90;;;;;;5094676;28;20659;-56
2022/03/27 04:03:49;;;;;;;29.27;23.00;;;8.80;99.90;;;;;;5094594;28;20180;-57
2022/03/27 04:06:15;;;;;;;28.45;23.38;;;8.70;99.90;;;;;;5094530;28;20188;-58
2022/03/27 04:08:41;;;;;;;29.48;23.42;;;8.80;99.90;;;;;;5094708;28;20569;-56
2022/03/27 04:11:06;;;;;;;35.78;27.70;;;8.70;99.90;;;;;;5094695;28;20178;-56
2022/03/27 04:13:32;;;;;;;44.83;29.45;;;8.70;99.90;;;;;;5094555;28;20182;-57
2022/03/27 04:15:57;;;;;;;55.30;33.25;;;8.80;99.90;;;;;;5094485;28;20170;-57
2022/03/27 04:18:24;;;;;;;52.13;33.00;;;8.70;99.90;;;;;;5094274;28;20174;-57
2022/03/27 04:20:50;;;;;;;58.35;35.42;;;8.70;99.90;;;;;;5094124;28;20182;-57
2022/03/27 04:23:15;;;;;;;57.47;34.58;;;8.70;99.90;;;;;;5094436;28;20308;-56
2022/03/27 04:25:41;;;;;;;59.13;37.47;;;8.70;99.90;;;;;;5094396;28;20253;-57
2022/03/27 04:28:08;;;;;;;59.97;36.33;;;8.70;99.90;;;;;;5094255;28;20190;-57
2022/03/27 04:30:35;;;;;;;58.97;35.80;;;8.70;99.90;;;;;;5094191;28;20669;-57
2022/03/27 04:33:00;;;;;;;50.97;32.97;;;8.70;99.90;;;;;;5093916;28;20209;-52
2022/03/27 04:35:26;;;;;;;49.25;31.08;;;8.80;99.90;;;;;;5094058;28;20181;-56
2022/03/27 04:37:52;;;;;;;46.85;30.38;;;8.90;99.90;;;;;;5094236;28;20228;-58
2022/03/27 04:40:18;;;;;;;43.63;29.50;;;9.00;99.90;;;;;;5075899;28;20173;-54
2022/03/27 04:42:45;;;;;;;54.60;33.28;;;9.00;99.90;;;;;;5094027;28;20296;-56
2022/03/27 04:45:11;;;;;;;68.53;38.58;;;9.10;99.90;;;;;;5093977;28;20166;-55
2022/03/27 04:47:38;;;;;;;66.28;38.63;;;9.10;99.90;;;;;;5093889;28;20170;-57
2022/03/27 04:50:05;;;;;;;70.57;38.47;;;9.00;99.90;;;;;;5093912;28;20170;-55
2022/03/27 04:52:31;;;;;;;74.93;40.65;;;8.90;99.90;;;;;;5093528;28;20277;-57
2022/03/27 04:54:57;;;;;;;66.55;36.95;;;9.00;99.90;;;;;;5094067;28;20177;-57
2022/03/27 04:57:23;;;;;;;62.80;35.58;;;8.90;99.90;;;;;;5093718;28;20179;-55
2022/03/27 04:59:48;;;;;;;56.75;33.75;;;9.00;99.90;;;;;;5093643;28;20174;-57
2022/03/27 05:02:14;;;;;;;53.95;32.30;;;9.00;99.90;;;;;;5093432;28;20255;-56
2022/03/27 05:04:41;;;;;;;46.83;30.00;;;9.00;99.90;;;;;;5093525;28;20174;-56
2022/03/27 05:07:07;;;;;;;45.85;30.90;;;9.00;99.90;;;;;;5093596;28;20178;-57
2022/03/27 05:09:32;;;;;;;50.30;30.67;;;9.10;99.90;;;;;;5093493;28;20646;-55
2022/03/27 05:11:58;;;;;;;55.30;33.53;;;9.00;99.90;;;;;;5093540;28;20542;-55
2022/03/27 05:14:24;;;;;;;42.53;28.48;;;9.10;99.90;;;;;;5093477;28;20189;-57
2022/03/27 05:16:50;;;;;;;46.70;29.42;;;9.10;99.90;;;;;;5093327;28;20172;-56
2022/03/27 05:19:16;;;;;;;49.97;30.67;;;9.10;99.90;;;;;;5093533;28;20261;-57
2022/03/27 05:21:41;;;;;;;57.88;33.33;;;9.00;99.90;;;;;;5093403;28;20296;-54
2022/03/27 05:24:09;;;;;;;50.05;30.02;;;9.00;99.90;;;;;;5093503;28;20169;-55
2022/03/27 05:26:35;;;;;;;43.50;29.15;;;9.00;99.90;;;;;;5093262;28;20235;-57
2022/03/27 05:29:02;;;;;;;37.63;27.83;;;9.10;99.90;;;;;;5093310;28;20174;-57
2022/03/27 05:31:28;;;;;;;44.00;29.73;;;9.00;99.90;;;;;;5093069;28;20186;-56
2022/03/27 05:33:53;;;;;;;50.05;32.03;;;9.00;99.90;;;;;;5093378;28;20585;-55
2022/03/27 05:36:20;;;;;;;42.75;29.17;;;9.00;99.90;;;;;;5093369;28;20180;-56
2022/03/27 05:38:46;;;;;;;44.58;29.60;;;8.90;99.90;;;;;;5093119;28;20646;-57
2022/03/27 05:41:11;;;;;;;38.40;27.90;;;9.00;99.90;;;;;;5093217;28;20178;-57
2022/03/27 05:43:37;;;;;;;36.10;27.25;;;9.10;99.90;;;;;;5093166;28;20586;-55
2022/03/27 05:46:03;;;;;;;37.50;28.23;;;9.20;99.90;;;;;;5092971;28;20174;-54
2022/03/27 05:48:29;;;;;;;36.75;26.58;;;9.20;99.90;;;;;;5093268;28;20649;-56
2022/03/27 05:50:54;;;;;;;38.78;28.95;;;9.20;99.90;;;;;;5093107;28;20259;-57
2022/03/27 05:53:20;;;;;;;43.78;29.95;;;9.10;99.90;;;;;;5093111;28;20269;-56
2022/03/27 05:55:49;;;;;;;35.28;27.67;;;9.10;99.90;;;;;;5093185;28;20620;-57
2022/03/27 05:58:18;;;;;;;37.75;27.52;;;9.10;99.90;;;;;;5093092;28;20260;-56
2022/03/27 06:00:43;;;;;;;40.22;28.40;;;9.10;99.90;;;;;;5092940;28;20253;-56
2022/03/27 06:03:09;;;;;;;40.80;28.23;;;9.20;99.90;;;;;;5093061;28;20632;-56
2022/03/27 06:05:35;;;;;;;37.80;26.30;;;9.10;99.90;;;;;;5078156;28;20182;-55
2022/03/27 06:08:00;;;;;;;33.08;25.83;;;9.20;99.90;;;;;;5096731;28;20181;-54
2022/03/27 06:10:31;;;;;;;31.63;25.05;;;9.20;99.90;;;;;;5096872;28;20631;-55
2022/03/27 06:12:57;;;;;;;28.92;24.05;;;9.20;99.90;;;;;;5096586;28;20170;-54
2022/03/27 06:15:23;;;;;;;31.35;25.00;;;9.20;99.90;;;;;;5096290;28;20171;-56
2022/03/27 06:17:50;;;;;;;29.80;23.33;;;9.20;99.90;;;;;;5095783;28;20631;-57
2022/03/27 06:20:18;;;;;;;32.72;25.70;;;9.20;99.90;;;;;;5095527;28;20165;-54
2022/03/27 06:22:44;;;;;;;37.00;26.42;;;9.30;99.90;;;;;;5094968;28;20734;-56
2022/03/27 06:25:15;;;;;;;36.40;25.58;;;9.30;99.90;;;;;;5075828;28;20182;-56
2022/03/27 06:27:41;;;;;;;35.15;25.02;;;9.20;99.90;;;;;;5058138;28;20201;-57
2022/03/27 06:30:09;;;;;;;30.70;24.20;;;9.30;99.90;;;;;;5076045;28;20198;-55
2022/03/27 06:32:36;;;;;;;30.98;23.65;;;9.40;99.90;;;;;;5074537;28;20170;-57
2022/03/27 06:35:04;;;;;;;28.73;23.17;;;9.40;99.90;;;;;;5074033;28;20175;-57
2022/03/27 06:37:30;;;;;;;34.20;25.42;;;9.30;99.90;;;;;;5074452;28;20181;-56
2022/03/27 06:39:56;;;;;;;39.88;25.58;;;9.30;99.90;;;;;;5075032;28;20179;-56
2022/03/27 06:42:24;;;;;;;39.80;28.23;;;9.30;99.90;;;;;;5075577;28;20548;-55
2022/03/27 06:44:51;;;;;;;48.20;31.70;;;9.20;99.90;;;;;;5075921;28;20620;-55
2022/03/27 06:47:18;;;;;;;43.70;30.23;;;9.20;99.90;;;;;;5075516;28;20174;-55
2022/03/27 06:49:43;;;;;;;33.97;25.08;;;9.30;99.90;;;;;;5095777;28;20683;-55
2022/03/27 06:52:09;;;;;;;32.17;23.95;;;9.20;99.90;;;;;;5095715;28;20260;-56
2022/03/27 06:54:35;;;;;;;28.58;23.63;;;9.20;99.90;;;;;;5095734;28;20166;-56
2022/03/27 06:57:01;;;;;;;59.42;35.40;;;9.30;99.90;;;;;;5095383;28;20685;-53
2022/03/27 06:59:27;;;;;;;73.05;40.33;;;9.40;99.90;;;;;;5095826;28;20174;-56
2022/03/27 07:04:37;;;;;;;67.97;38.70;;;9.40;99.90;;;;;;5095602;28;20303;-56
2022/03/27 07:07:03;;;;;;;65.38;39.15;;;9.50;99.90;;;;;;5095481;28;20170;-55
2022/03/27 07:09:28;;;;;;;49.28;31.95;;;9.40;99.90;;;;;;5095399;28;20234;-55
2022/03/27 07:11:54;;;;;;;52.00;32.88;;;9.50;99.90;;;;;;5095959;28;20188;-56
2022/03/27 07:14:20;;;;;;;36.50;26.00;;;9.50;99.90;;;;;;5095723;28;20227;-56
2022/03/27 07:16:45;;;;;;;36.40;25.70;;;9.50;99.90;;;;;;5095215;28;20170;-55
2022/03/27 07:19:14;;;;;;;29.70;23.15;;;9.40;99.90;;;;;;5076775;28;20174;-56
2022/03/27 07:21:41;;;;;;;34.85;25.15;;;9.50;99.90;;;;;;5095322;28;20262;-54
2022/03/27 07:24:07;;;;;;;35.22;24.75;;;9.70;99.90;;;;;;5094946;28;20170;-56
2022/03/27 07:26:33;;;;;;;35.15;24.70;;;9.70;99.90;;;;;;5095339;28;20648;-55
2022/03/27 07:28:58;;;;;;;25.38;21.05;;;9.80;99.90;;;;;;5095195;28;20174;-56
2022/03/27 07:31:24;;;;;;;24.02;19.65;;;9.70;99.90;;;;;;5094967;28;20170;-55
2022/03/27 07:33:50;;;;;;;53.97;30.70;;;9.60;99.90;;;;;;5094935;28;20172;-56
2022/03/27 07:36:16;;;;;;;127.07;53.88;;;9.50;99.90;;;;;;5094888;28;20627;-57
2022/03/27 07:38:42;;;;;;;148.48;61.83;;;9.50;99.90;;;;;;5094769;28;20202;-55
2022/03/27 07:41:08;;;;;;;178.75;68.13;;;9.40;99.90;;;;;;5094585;28;20210;-56
2022/03/27 07:43:33;;;;;;;142.68;60.72;;;9.40;99.90;;;;;;5091441;28;20241;-54
2022/03/27 07:45:59;;;;;;;162.93;65.13;;;9.50;99.90;;;;;;5073200;28;20171;-53
2022/03/27 07:48:26;;;;;;;159.98;64.40;;;9.50;99.90;;;;;;5086042;28;20289;-54
2022/03/27 07:50:54;;;;;;;154.50;65.57;;;9.60;99.90;;;;;;5094985;28;20178;-55
2022/03/27 07:53:20;;;;;;;133.68;58.35;;;9.50;99.90;;;;;;5094577;28;20189;-54
2022/03/27 07:55:46;;;;;;;114.22;52.80;;;9.50;99.90;;;;;;5094769;28;20180;-55
2022/03/27 07:58:12;;;;;;;87.95;44.92;;;9.50;99.90;;;;;;5094780;28;20178;-56
2022/03/27 08:00:38;;;;;;;123.55;55.67;;;9.70;99.90;;;;;;5094598;28;20219;-53
2022/03/27 08:03:03;;;;;;;148.75;65.15;;;9.60;99.90;;;;;;5094441;28;20205;-52
2022/03/27 08:05:29;;;;;;;134.05;59.30;;;9.50;99.90;;;;;;5094423;28;20174;-56
2022/03/27 08:07:55;;;;;;;128.27;59.28;;;9.50;99.90;;;;;;5094375;28;20182;-53
2022/03/27 08:10:21;;;;;;;138.93;62.97;;;9.60;99.90;;;;;;5094555;28;20170;-52
2022/03/27 08:12:47;;;;;;;152.88;67.45;;;9.60;99.90;;;;;;5094424;28;20261;-54
2022/03/27 08:15:15;;;;;;;133.30;63.63;;;9.60;99.90;;;;;;5094216;28;20261;-52
2022/03/27 08:17:40;;;;;;;154.30;71.30;;;9.60;99.90;;;;;;5094092;28;20629;-55
2022/03/27 08:20:07;;;;;;;144.23;66.88;;;9.50;99.90;;;;;;5093906;28;20194;-53
2022/03/27 08:22:33;;;;;;;143.10;66.72;;;9.40;99.90;;;;;;5093974;28;20302;-51
2022/03/27 08:24:59;;;;;;;128.27;61.58;;;9.40;99.90;;;;;;5094197;28;20646;-53
2022/03/27 08:27:25;;;;;;;118.20;59.58;;;9.40;99.90;;;;;;5093405;28;20173;-56
2022/03/27 08:29:51;;;;;;;101.70;54.70;;;9.50;99.90;;;;;;5094008;28;20303;-54
2022/03/27 08:32:17;;;;;;;86.80;44.97;;;9.60;99.90;;;;;;5094237;28;20182;-54
2022/03/27 08:34:45;;;;;;;70.63;40.08;;;9.60;99.90;;;;;;5093893;28;20181;-52
2022/03/27 08:37:13;;;;;;;87.25;49.03;;;9.60;99.90;;;;;;5094090;28;20231;-56
2022/03/27 08:39:41;;;;;;;119.45;62.70;;;9.50;99.90;;;;;;5094044;28;20193;-54
2022/03/27 08:42:07;;;;;;;122.45;59.95;;;9.70;99.90;;;;;;5093778;28;20262;-53
2022/03/27 08:44:35;;;;;;;108.30;53.45;;;9.60;99.90;;;;;;5093496;28;20178;-55
2022/03/27 08:47:04;;;;;;;114.15;60.90;;;9.70;99.90;;;;;;5093670;28;20576;-54
2022/03/27 08:49:54;;;;;;;115.35;59.28;;;9.70;99.90;;;;;;5093367;28;20174;-55
2022/03/27 08:52:21;;;;;;;115.22;56.63;;;9.90;99.90;;;;;;5093544;28;20186;-55
2022/03/27 08:54:50;;;;;;;123.05;62.47;;;10.10;99.90;;;;;;5093611;28;20178;-55
2022/03/27 08:57:30;;;;;;;114.30;58.33;;;10.00;99.90;;;;;;5093472;28;20209;-55
2022/03/27 08:59:58;;;;;;;128.25;64.75;;;10.20;99.90;;;;;;5093413;28;20178;-55
2022/03/27 09:02:24;;;;;;;136.13;67.68;;;10.20;99.90;;;;;;5093478;28;20229;-53
2022/03/27 09:04:54;;;;;;;119.28;62.75;;;10.00;99.90;;;;;;5093786;28;20170;-55
2022/03/27 09:07:23;;;;;;;132.77;66.47;;;10.10;99.90;;;;;;5093450;28;20176;-56
2022/03/27 09:09:49;;;;;;;131.00;66.75;;;10.10;99.90;;;;;;5093355;28;20533;-52
2022/03/27 09:12:18;;;;;;;124.25;65.13;;;10.10;99.90;;;;;;5075198;28;20178;-56
2022/03/27 09:14:44;;;;;;;105.25;58.88;;;10.20;99.90;;;;;;5093367;28;20212;-56
2022/03/27 09:17:10;;;;;;;100.85;54.08;;;10.20;99.90;;;;;;5093481;28;20638;-55
2022/03/27 09:19:41;;;;;;;88.15;51.90;;;10.30;99.90;;;;;;5093523;28;20178;-55
2022/03/27 09:22:18;;;;;;;96.43;52.60;;;10.40;99.90;;;;;;5093064;28;20301;-54
2022/03/27 09:24:48;;;;;;;88.35;52.70;;;10.50;99.90;;;;;;5093121;28;20166;-54
2022/03/27 09:27:15;;;;;;;105.93;57.90;;;10.60;99.90;;;;;;5093257;28;20177;-54
2022/03/27 09:30:09;;;;;;;128.85;66.20;;;10.30;99.90;;;;;;5093293;28;20627;-55
2022/03/27 09:32:36;;;;;;;130.50;70.40;;;10.40;99.90;;;;;;5093584;28;20260;-55
2022/03/27 09:35:08;;;;;;;131.98;70.00;;;10.50;99.90;;;;;;5093050;28;20173;-54
2022/03/27 09:37:41;;;;;;;132.90;72.05;;;10.60;99.90;;;;;;5093252;28;20174;-56
2022/03/27 09:40:08;;;;;;;115.40;66.00;;;10.70;99.90;;;;;;5097453;28;20174;-55
2022/03/27 09:42:37;;;;;;;116.15;64.75;;;10.80;99.90;;;;;;5097311;28;20246;-55
2022/03/27 09:45:24;;;;;;;114.43;68.28;;;10.70;99.90;;;;;;5097029;28;20226;-56
2022/03/27 09:47:53;;;;;;;139.18;77.97;;;10.80;99.90;;;;;;5096659;28;20212;-55
2022/03/27 09:50:30;;;;;;;136.27;79.63;;;10.90;99.90;;;;;;5097136;28;20198;-56
2022/03/27 09:53:36;;;;;;;136.20;79.50;;;10.80;99.90;;;;;;5096949;28;20207;-56
2022/03/27 09:56:01;;;;;;;125.07;73.75;;;10.80;99.90;;;;;;5096826;28;20184;-55
2022/03/27 09:58:44;;;;;;;115.63;66.35;;;10.70;99.90;;;;;;5097061;28;20178;-56
2022/03/27 10:01:16;;;;;;;114.82;67.80;;;10.80;99.90;;;;;;5097184;28;20200;-57
2022/03/27 10:04:02;;;;;;;135.02;76.03;;;10.80;99.90;;;;;;5097000;28;20275;-53
2022/03/27 10:06:31;;;;;;;147.10;82.07;;;10.70;99.90;;;;;;5096678;28;20217;-54
2022/03/27 10:08:58;;;;;;;118.72;67.10;;;10.60;99.90;;;;;;5097297;28;20174;-55
2022/03/27 10:11:24;;;;;;;107.32;63.40;;;10.60;99.90;;;;;;5097002;28;20504;-53
2022/03/27 10:13:54;;;;;;;118.13;67.95;;;10.80;99.90;;;;;;5096783;28;20174;-54
2022/03/27 10:16:32;;;;;;;133.23;72.97;;;10.90;99.90;;;;;;5096668;28;20166;-55
2022/03/27 10:19:06;;;;;;;121.53;69.38;;;11.00;99.90;;;;;;5096575;28;20209;-53
2022/03/27 10:21:34;;;;;;;99.53;59.80;;;10.90;99.90;;;;;;5096597;28;20239;-54
2022/03/27 10:24:08;;;;;;;99.70;57.88;;;10.80;99.90;;;;;;5096702;28;20166;-55
2022/03/27 10:26:35;;;;;;;111.40;67.53;;;10.60;99.90;;;;;;5078330;28;20217;-55
2022/03/27 10:29:01;;;;;;;108.90;66.22;;;10.60;99.90;;;;;;5096483;28;20166;-54
2022/03/27 10:31:27;;;;;;;95.40;60.65;;;10.70;99.90;;;;;;5096350;28;20307;-54
2022/03/27 10:33:55;;;;;;;97.07;58.35;;;10.70;99.90;;;;;;5096503;28;20216;-53
2022/03/27 10:36:56;;;;;;;102.68;59.70;;;10.60;99.90;;;;;;5096479;28;20256;-56
2022/03/27 10:39:50;;;;;;;102.45;62.05;;;10.60;99.90;;;;;;5091055;28;20185;-56
2022/03/27 10:42:34;;;;;;;120.03;70.32;;;10.70;99.90;;;;;;5095749;28;20214;-56
2022/03/27 10:45:09;;;;;;;120.22;74.72;;;10.70;99.90;;;;;;5096353;28;20174;-56
2022/03/27 10:47:35;;;;;;;112.72;69.57;;;10.90;99.90;;;;;;5096045;28;20231;-56
2022/03/27 10:50:01;;;;;;;121.70;78.18;;;11.00;99.90;;;;;;5095302;28;20173;-56
2022/03/27 10:52:36;;;;;;;108.30;73.63;;;11.00;99.90;;;;;;5095868;28;20647;-56
2022/03/27 10:55:09;;;;;;;106.07;77.03;;;11.20;99.90;;;;;;5096184;28;20178;-56
2022/03/27 10:57:41;;;;;;;104.18;72.53;;;11.10;99.90;;;;;;5095988;28;20174;-56
2022/03/27 11:00:09;;;;;;;104.07;71.32;;;11.10;99.90;;;;;;5095995;28;20170;-56
2022/03/27 11:02:47;;;;;;;96.63;66.82;;;11.20;99.90;;;;;;5095630;28;20190;-56
2022/03/27 11:05:31;;;;;;;87.88;60.97;;;11.10;99.90;;;;;;5095984;28;20207;-55
2022/03/27 11:08:18;;;;;;;85.65;60.17;;;10.90;99.90;;;;;;5095802;28;20188;-56
2022/03/27 11:10:55;;;;;;;51.22;41.28;;;11.10;99.90;;;;;;5095274;28;20584;-55
2022/03/27 11:13:27;;;;;;;46.50;37.35;;;11.30;99.90;;;;;;5095745;28;20272;-54
2022/03/27 11:16:07;;;;;;;50.10;39.25;;;11.40;99.90;;;;;;5095486;28;20212;-58
2022/03/27 11:18:37;;;;;;;45.03;33.83;;;11.60;99.90;;;;;;5094777;28;20252;-59
2022/03/27 11:21:04;;;;;;;40.70;30.85;;;11.70;99.90;;;;;;5095556;28;20268;-58
2022/03/27 11:23:33;;;;;;;51.63;37.15;;;11.70;99.90;;;;;;5095085;28;20251;-59
2022/03/27 11:26:01;;;;;;;52.95;39.55;;;11.70;99.90;;;;;;5095568;28;20166;-59
2022/03/27 11:28:44;;;;;;;52.40;38.83;;;11.60;99.90;;;;;;5095394;28;20177;-59
2022/03/27 11:31:09;;;;;;;45.40;35.38;;;11.80;99.90;;;;;;5095385;28;20265;-58
2022/03/27 11:33:36;;;;;;;46.67;36.35;;;11.60;99.90;;;;;;5095300;28;20193;-58
2022/03/27 11:36:05;;;;;;;51.40;39.28;;;11.80;99.90;;;;;;5095100;28;20263;-59
2022/03/27 11:38:50;;;;;;;53.85;40.65;;;11.70;99.90;;;;;;5077190;28;20230;-59
2022/03/27 11:41:43;;;;;;;49.03;37.97;;;11.60;99.90;;;;;;5077428;28;20277;-58
2022/03/27 11:47:13;;;;;;;36.88;30.52;;;11.80;99.90;;;;;;5095310;28;20235;-59
2022/03/27 11:49:41;;;;;;;52.60;40.47;;;11.90;99.90;;;;;;5094799;28;20170;-59
2022/03/27 11:52:09;;;;;;;59.50;45.22;;;12.00;99.90;;;;;;5094858;28;20186;-59
2022/03/27 11:54:35;;;;;;;50.33;39.28;;;11.90;99.90;;;;;;5094890;28;20239;-59
2022/03/27 11:57:02;;;;;;;43.55;33.45;;;12.00;99.90;;;;;;5094699;28;20188;-59
2022/03/27 11:59:28;;;;;;;49.90;37.67;;;11.80;99.90;;;;;;5094847;28;20205;-59
2022/03/27 12:01:57;;;;;;;39.90;31.58;;;12.00;99.90;;;;;;5093856;28;20654;-59
2022/03/27 12:04:23;;;;;;;42.45;32.60;;;12.20;99.90;;;;;;5094675;28;20166;-59
2022/03/27 12:06:59;;;;;;;42.15;32.63;;;12.30;99.90;;;;;;5094618;28;20252;-59
2022/03/27 12:09:29;;;;;;;46.90;34.85;;;12.10;99.90;;;;;;5094471;28;20294;-59
2022/03/27 12:12:10;;;;;;;45.97;34.22;;;12.20;99.90;;;;;;5094585;28;20299;-59
2022/03/27 12:14:59;;;;;;;46.92;35.63;;;12.10;99.90;;;;;;5094449;28;20184;-59
2022/03/27 12:17:31;;;;;;;46.05;35.65;;;12.20;99.90;;;;;;5094477;28;20173;-59
2022/03/27 12:20:08;;;;;;;43.60;33.47;;;12.30;99.90;;;;;;5094586;28;20248;-59
2022/03/27 12:22:37;;;;;;;42.63;32.60;;;12.50;99.90;;;;;;5094390;28;20270;-58
2022/03/27 12:25:07;;;;;;;46.13;33.92;;;12.50;99.90;;;;;;5094345;28;20170;-59
2022/03/27 12:30:19;;;;;;;40.75;30.80;;;12.40;99.90;;;;;;5094484;28;20204;-59
2022/03/27 12:32:46;;;;;;;35.00;28.40;;;12.60;99.90;;;;;;5094405;28;20178;-59
2022/03/27 12:35:21;;;;;;;31.88;26.15;;;12.50;99.90;;;;;;5094139;28;20166;-59
2022/03/27 12:37:46;;;;;;;37.03;28.10;;;12.70;99.90;;;;;;5094119;28;20268;-59
2022/03/27 12:40:12;;;;;;;31.75;24.98;;;12.80;99.90;;;;;;5094061;28;20198;-59
2022/03/27 12:42:46;;;;;;;35.90;27.17;;;12.80;99.90;;;;;;5093754;28;20483;-59
2022/03/27 12:45:24;;;;;;;33.38;27.38;;;13.00;99.90;;;;;;5093981;28;20181;-58
2022/03/27 12:47:52;;;;;;;35.70;27.35;;;13.00;99.90;;;;;;5093861;28;20569;-59